createdAt,value
2018-03-08T00:00:07.371Z,3.14
2018-03-08T00:01:07.099Z,3.08
2018-03-08T00:02:07.347Z,3.14
2018-03-08T00:03:07.074Z,3.05
2018-03-08T00:04:07.314Z,3.13
2018-03-08T00:05:07.292Z,3.17
2018-03-08T00:06:07.277Z,3.13
2018-03-08T00:07:07.269Z,3.09
2018-03-08T00:08:07.245Z,3.14
2018-03-08T00:09:06.973Z,3.16
2018-03-08T00:10:07.212Z,3.14
2018-03-08T00:11:06.940Z,3.14
2018-03-08T00:12:07.180Z,3.16
2018-03-08T00:13:06.907Z,3.09
2018-03-08T00:14:06.892Z,3.09
2018-03-08T00:15:06.874Z,3.11
2018-03-08T00:16:06.862Z,3.01
2018-03-08T00:17:06.843Z,2.87
2018-03-08T00:18:07.096Z,3.03
2018-03-08T00:19:07.140Z,2.96
2018-03-08T00:20:06.791Z,2.98
2018-03-08T00:21:06.772Z,2.99
2018-03-08T00:22:07.019Z,2.84
2018-03-08T00:23:06.748Z,2.93
2018-03-08T00:24:06.728Z,2.96
2018-03-08T00:25:06.723Z,2.99
2018-03-08T00:26:06.952Z,3.01
2018-03-08T00:27:06.940Z,3.03
2018-03-08T00:28:06.664Z,2.98
2018-03-08T00:29:06.644Z,2.9
2018-03-08T00:30:06.633Z,2.99
2018-03-08T00:31:06.620Z,2.95
2018-03-08T00:32:06.615Z,2.9
2018-03-08T00:33:06.587Z,2.9
2018-03-08T00:34:06.822Z,2.98
2018-03-08T00:35:06.811Z,3.01
2018-03-08T00:36:06.535Z,2.88
2018-03-08T00:37:06.523Z,3.01
2018-03-08T00:38:06.762Z,2.96
2018-03-08T00:39:06.740Z,2.98
2018-03-08T00:40:06.725Z,2.98
2018-03-08T00:41:06.193Z,2.96
2018-03-08T00:42:06.438Z,3.02
2018-03-08T00:43:06.688Z,2.91
2018-03-08T00:44:06.143Z,2.93
2018-03-08T00:45:06.388Z,3.01
2018-03-08T00:46:06.372Z,2.84
2018-03-08T00:47:06.614Z,2.93
2018-03-08T00:48:06.076Z,2.98
2018-03-08T00:49:06.577Z,2.91
2018-03-08T00:50:06.568Z,2.9
2018-03-08T00:51:06.289Z,2.93
2018-03-08T00:52:06.271Z,2.93
2018-03-08T00:53:06.510Z,2.93
2018-03-08T00:54:06.246Z,2.98
2018-03-08T00:55:06.477Z,2.99
2018-03-08T00:56:06.462Z,2.95
2018-03-08T00:57:06.452Z,3.01
2018-03-08T00:58:06.435Z,2.98
2018-03-08T00:59:06.424Z,2.96
2018-03-08T01:00:06.393Z,2.9
2018-03-08T01:01:06.128Z,3.01
2018-03-08T01:02:06.364Z,2.93
2018-03-08T01:03:06.353Z,2.93
2018-03-08T01:04:06.100Z,2.98
2018-03-08T01:05:06.322Z,2.96
2018-03-08T01:06:06.301Z,2.99
2018-03-08T01:07:06.035Z,2.99
2018-03-08T01:08:06.347Z,3.05
2018-03-08T01:09:06.002Z,3.03
2018-03-08T01:10:05.717Z,2.91
2018-03-08T01:11:06.216Z,3.01
2018-03-08T01:12:05.950Z,2.99
2018-03-08T01:13:06.183Z,3.01
2018-03-08T01:14:06.174Z,3.06
2018-03-08T01:15:05.898Z,3.06
2018-03-08T01:16:06.139Z,3.09
2018-03-08T01:17:06.122Z,2.95
2018-03-08T01:18:06.101Z,3.06
2018-03-08T01:19:06.089Z,3.03
2018-03-08T01:20:05.819Z,3.11
2018-03-08T01:21:06.058Z,3.09
2018-03-08T01:22:05.780Z,3.08
2018-03-08T01:23:05.507Z,3.05
2018-03-08T01:24:06.005Z,3.06
2018-03-08T01:25:05.998Z,3.11
2018-03-08T01:26:05.975Z,3.17
2018-03-08T01:27:05.964Z,3.06
2018-03-08T01:28:05.946Z,2.99
2018-03-08T01:29:05.929Z,3.03
2018-03-08T01:30:05.650Z,3.06
2018-03-08T01:31:05.892Z,3.11
2018-03-08T01:32:05.625Z,3.13
2018-03-08T01:33:05.611Z,3.06
2018-03-08T01:34:05.587Z,3.19
2018-03-08T01:35:05.573Z,3.05
2018-03-08T01:36:05.557Z,3.08
2018-03-08T01:37:05.283Z,3.03
2018-03-08T01:38:05.795Z,3.06
2018-03-08T01:39:05.511Z,3.11
2018-03-08T01:40:05.497Z,3.08
2018-03-08T01:41:05.473Z,3.11
2018-03-08T01:42:05.457Z,3.13
2018-03-08T01:43:05.438Z,3.19
2018-03-08T01:44:05.690Z,3.06
2018-03-08T01:45:05.748Z,3.11
2018-03-08T01:46:05.394Z,3.13
2018-03-08T01:47:05.378Z,3.11
2018-03-08T01:48:05.364Z,3.2
2018-03-08T01:49:05.603Z,3.11
2018-03-08T01:50:05.590Z,3.19
2018-03-08T01:51:05.314Z,3.16
2018-03-08T01:52:05.298Z,3.03
2018-03-08T01:53:05.284Z,3.2
2018-03-08T01:54:05.524Z,3.17
2018-03-08T01:55:05.253Z,3.21
2018-03-08T01:56:05.497Z,3.09
2018-03-08T01:57:04.960Z,3.16
2018-03-08T01:58:04.945Z,3.13
2018-03-08T01:59:04.928Z,3.13
2018-03-08T02:00:05.425Z,3.13
2018-03-08T02:01:04.905Z,3.2
2018-03-08T02:02:05.399Z,3.17
2018-03-08T02:03:05.117Z,3.13
2018-03-08T02:04:05.366Z,3.14
2018-03-08T02:05:05.356Z,3.05
2018-03-08T02:06:05.071Z,3.2
2018-03-08T02:07:05.319Z,3.11
2018-03-08T02:08:05.043Z,3.14
2018-03-08T02:09:05.027Z,3.08
2018-03-08T02:10:05.267Z,3.2
2018-03-08T02:11:05.246Z,3.16
2018-03-08T02:12:04.974Z,3.16
2018-03-08T02:13:05.218Z,3.11
2018-03-08T02:14:05.203Z,3.19
2018-03-08T02:15:05.236Z,3.09
2018-03-08T02:16:05.177Z,3.11
2018-03-08T02:17:04.895Z,3.2
2018-03-08T02:18:04.618Z,3.16
2018-03-08T02:19:05.115Z,3.08
2018-03-08T02:20:05.115Z,3.08
2018-03-08T02:21:04.830Z,3.17
2018-03-08T02:22:05.067Z,3.14
2018-03-08T02:23:04.798Z,3.08
2018-03-08T02:24:04.788Z,3.13
2018-03-08T02:25:05.020Z,3.13
2018-03-08T02:26:05.009Z,3.08
2018-03-08T02:27:04.995Z,3.09
2018-03-08T02:28:04.715Z,3.11
2018-03-08T02:29:04.956Z,3.13
2018-03-08T02:30:04.719Z,3.14
2018-03-08T02:31:04.937Z,3.06
2018-03-08T02:32:04.653Z,3.11
2018-03-08T02:33:04.639Z,3.06
2018-03-08T02:34:04.625Z,3.08
2018-03-08T02:35:04.886Z,3.08
2018-03-08T02:36:04.605Z,3.03
2018-03-08T02:37:04.583Z,3.06
2018-03-08T02:38:04.560Z,3.11
2018-03-08T02:39:04.805Z,3.05
2018-03-08T02:40:04.791Z,3.05
2018-03-08T02:41:04.779Z,3.06
2018-03-08T02:42:04.516Z,3.11
2018-03-08T02:43:04.485Z,3.06
2018-03-08T02:44:04.468Z,3.06
2018-03-08T02:45:04.722Z,3.08
2018-03-08T02:46:04.171Z,3.08
2018-03-08T02:47:04.666Z,3.09
2018-03-08T02:48:04.405Z,3.05
2018-03-08T02:49:04.642Z,3.08
2018-03-08T02:50:04.633Z,3.03
2018-03-08T02:51:04.349Z,3.08
2018-03-08T02:52:04.596Z,3.03
2018-03-08T02:53:04.325Z,3.02
2018-03-08T02:54:04.563Z,3.06
2018-03-08T02:55:04.551Z,3.08
2018-03-08T02:56:04.023Z,2.98
2018-03-08T02:57:04.511Z,3.09
2018-03-08T02:58:04.492Z,3.02
2018-03-08T02:59:04.228Z,3.13
2018-03-08T03:00:04.463Z,3.06
2018-03-08T03:01:03.929Z,3.06
2018-03-08T03:02:04.172Z,2.91
2018-03-08T03:03:04.159Z,3.02
2018-03-08T03:04:03.895Z,3.02
2018-03-08T03:05:04.159Z,3.03
2018-03-08T03:06:04.372Z,3.05
2018-03-08T03:07:04.345Z,3.06
2018-03-08T03:08:04.332Z,3.08
2018-03-08T03:09:04.064Z,3.05
2018-03-08T03:10:04.163Z,3.01
2018-03-08T03:11:04.030Z,2.95
2018-03-08T03:12:04.019Z,2.96
2018-03-08T03:13:03.994Z,3.03
2018-03-08T03:14:04.234Z,2.98
2018-03-08T03:15:03.707Z,2.95
2018-03-08T03:16:04.206Z,2.98
2018-03-08T03:17:04.209Z,3.03
2018-03-08T03:18:03.915Z,2.99
2018-03-08T03:19:03.896Z,3.05
2018-03-08T03:20:03.877Z,3.06
2018-03-08T03:21:03.866Z,3.13
2018-03-08T03:22:04.098Z,3.05
2018-03-08T03:23:04.097Z,2.98
2018-03-08T03:24:03.827Z,3.03
2018-03-08T03:25:03.801Z,2.95
2018-03-08T03:26:04.036Z,3.05
2018-03-08T03:27:03.765Z,2.99
2018-03-08T03:28:04.022Z,3.01
2018-03-08T03:29:03.733Z,3.02
2018-03-08T03:30:03.726Z,2.93
2018-03-08T03:31:03.968Z,2.93
2018-03-08T03:32:03.940Z,3.06
2018-03-08T03:33:03.672Z,3.08
2018-03-08T03:34:03.656Z,2.93
2018-03-08T03:35:03.642Z,3.05
2018-03-08T03:36:03.367Z,2.95
2018-03-08T03:37:03.611Z,3.02
2018-03-08T03:38:03.592Z,3.03
2018-03-08T03:39:03.576Z,3.06
2018-03-08T03:40:03.563Z,3.06
2018-03-08T03:41:03.541Z,2.91
2018-03-08T03:42:03.791Z,3.03
2018-03-08T03:43:03.774Z,2.98
2018-03-08T03:44:03.748Z,2.99
2018-03-08T03:45:03.736Z,3.08
2018-03-08T03:46:03.459Z,2.95
2018-03-08T03:47:03.704Z,3.13
2018-03-08T03:48:03.430Z,3.09
2018-03-08T03:49:03.672Z,3.03
2018-03-08T03:50:03.654Z,2.99
2018-03-08T03:51:03.124Z,2.93
2018-03-08T03:52:03.621Z,2.93
2018-03-08T03:53:03.603Z,3.11
2018-03-08T03:54:03.591Z,3.08
2018-03-08T03:55:03.313Z,3.08
2018-03-08T03:56:03.564Z,2.93
2018-03-08T03:57:03.287Z,3.11
2018-03-08T03:58:03.524Z,2.99
2018-03-08T03:59:03.512Z,2.95
2018-03-08T04:00:03.492Z,2.95
2018-03-08T04:01:03.220Z,2.91
2018-03-08T04:02:03.466Z,3.06
2018-03-08T04:03:03.448Z,2.95
2018-03-08T04:04:03.484Z,3.01
2018-03-08T04:05:03.416Z,2.99
2018-03-08T04:06:03.403Z,3.01
2018-03-08T04:07:03.384Z,2.96
2018-03-08T04:08:03.366Z,3.03
2018-03-08T04:09:03.361Z,3.09
2018-03-08T04:10:03.332Z,3.05
2018-03-08T04:11:03.078Z,3.03
2018-03-08T04:12:03.042Z,3.01
2018-03-08T04:13:03.289Z,2.95
2018-03-08T04:14:03.272Z,3.02
2018-03-08T04:15:03.251Z,2.98
2018-03-08T04:16:02.979Z,2.98
2018-03-08T04:17:02.964Z,2.88
2018-03-08T04:18:02.689Z,2.95
2018-03-08T04:19:02.670Z,3.01
2018-03-08T04:20:03.173Z,2.88
2018-03-08T04:21:02.896Z,2.9
2018-03-08T04:22:02.879Z,2.9
2018-03-08T04:23:02.861Z,3.01
2018-03-08T04:24:02.846Z,2.85
2018-03-08T04:25:02.831Z,2.91
2018-03-08T04:26:03.085Z,2.93
2018-03-08T04:27:02.802Z,2.98
2018-03-08T04:28:03.051Z,2.99
2018-03-08T04:29:03.027Z,2.9
2018-03-08T04:30:03.015Z,2.95
2018-03-08T04:31:02.737Z,2.84
2018-03-08T04:32:02.716Z,2.88
2018-03-08T04:33:02.964Z,2.87
2018-03-08T04:34:02.942Z,2.8
2018-03-08T04:35:02.675Z,2.85
2018-03-08T04:36:02.914Z,2.81
2018-03-08T04:37:02.636Z,2.85
2018-03-08T04:38:02.619Z,2.84
2018-03-08T04:39:02.606Z,2.81
2018-03-08T04:40:02.844Z,2.78
2018-03-08T04:41:02.573Z,2.83
2018-03-08T04:42:02.818Z,2.85
2018-03-08T04:43:02.543Z,2.8
2018-03-08T04:44:02.522Z,2.8
2018-03-08T04:45:02.772Z,2.88
2018-03-08T04:46:02.751Z,2.81
2018-03-08T04:47:02.733Z,2.8
2018-03-08T04:48:02.468Z,2.84
2018-03-08T04:49:02.562Z,2.85
2018-03-08T04:50:02.429Z,2.83
2018-03-08T04:51:02.409Z,2.81
2018-03-08T04:52:02.654Z,2.87
2018-03-08T04:53:02.629Z,2.85
2018-03-08T04:54:02.361Z,2.81
2018-03-08T04:55:02.604Z,2.81
2018-03-08T04:56:02.584Z,2.85
2018-03-08T04:57:02.570Z,2.81
2018-03-08T04:58:02.299Z,2.77
2018-03-08T04:59:02.535Z,2.78
2018-03-08T05:00:02.261Z,2.77
2018-03-08T05:01:01.992Z,2.85
2018-03-08T05:02:02.482Z,2.8
2018-03-08T05:03:02.471Z,2.8
2018-03-08T05:04:02.460Z,2.78
2018-03-08T05:05:02.437Z,2.77
2018-03-08T05:06:02.426Z,2.78
2018-03-08T05:07:02.146Z,2.81
2018-03-08T05:08:02.140Z,2.73
2018-03-08T05:09:02.117Z,2.78
2018-03-08T05:10:02.417Z,2.78
2018-03-08T05:11:02.083Z,2.73
2018-03-08T05:12:02.067Z,2.81
2018-03-08T05:13:02.052Z,2.81
2018-03-08T05:14:02.291Z,2.76
2018-03-08T05:15:02.275Z,2.69
2018-03-08T05:16:02.011Z,2.62
2018-03-08T05:17:01.727Z,2.73
2018-03-08T05:18:01.968Z,2.65
2018-03-08T05:19:02.225Z,2.59
2018-03-08T05:20:01.934Z,2.6
2018-03-08T05:21:02.173Z,2.55
2018-03-08T05:22:01.904Z,2.55
2018-03-08T05:23:02.145Z,2.65
2018-03-08T05:24:02.131Z,2.59
2018-03-08T05:25:02.117Z,2.55
2018-03-08T05:26:01.837Z,2.58
2018-03-08T05:27:01.822Z,2.55
2018-03-08T05:28:01.811Z,2.54
2018-03-08T05:29:01.531Z,2.6
2018-03-08T05:30:02.037Z,2.59
2018-03-08T05:31:01.773Z,2.59
2018-03-08T05:32:01.740Z,2.54
2018-03-08T05:33:01.744Z,2.59
2018-03-08T05:34:01.961Z,2.55
2018-03-08T05:35:01.986Z,2.62
2018-03-08T05:36:01.676Z,2.54
2018-03-08T05:37:01.656Z,2.52
2018-03-08T05:38:01.896Z,2.55
2018-03-08T05:39:01.883Z,2.6
2018-03-08T05:40:01.647Z,2.59
2018-03-08T05:41:01.843Z,2.62
2018-03-08T05:42:01.315Z,2.62
2018-03-08T05:43:01.558Z,2.59
2018-03-08T05:44:01.544Z,2.59
2018-03-08T05:45:01.530Z,2.52
2018-03-08T05:46:01.508Z,2.58
2018-03-08T05:47:01.756Z,2.59
2018-03-08T05:48:01.732Z,2.52
2018-03-08T05:49:01.202Z,2.59
2018-03-08T05:50:01.442Z,2.6
2018-03-08T05:51:01.733Z,2.59
2018-03-08T05:52:01.673Z,2.62
2018-03-08T05:53:01.658Z,2.55
2018-03-08T05:54:01.636Z,2.54
2018-03-08T05:55:01.626Z,2.55
2018-03-08T05:56:01.759Z,2.6
2018-03-08T05:57:01.582Z,2.54
2018-03-08T05:58:01.569Z,2.59
2018-03-08T05:59:01.291Z,2.54
2018-03-08T06:00:01.533Z,2.52
2018-03-08T06:01:01.519Z,2.58
2018-03-08T06:02:01.506Z,2.63
2018-03-08T06:03:01.484Z,2.52
2018-03-08T06:04:01.207Z,2.58
2018-03-08T06:05:00.939Z,2.62
2018-03-08T06:06:00.925Z,2.54
2018-03-08T06:07:01.157Z,2.59
2018-03-08T06:08:01.405Z,2.6
2018-03-08T06:09:01.128Z,2.58
2018-03-08T06:10:01.372Z,2.54
2018-03-08T06:11:01.100Z,2.6
2018-03-08T06:12:00.821Z,2.58
2018-03-08T06:13:01.322Z,2.6
2018-03-08T06:14:01.046Z,2.6
2018-03-08T06:15:01.026Z,2.72
2018-03-08T06:16:01.270Z,2.63
2018-03-08T06:17:01.001Z,2.69
2018-03-08T06:18:00.982Z,2.69
2018-03-08T06:19:00.971Z,2.65
2018-03-08T06:20:00.943Z,2.62
2018-03-08T06:21:00.930Z,2.65
2018-03-08T06:22:01.173Z,2.76
2018-03-08T06:23:01.156Z,2.77
2018-03-08T06:24:00.621Z,2.65
2018-03-08T06:25:01.131Z,2.7
2018-03-08T06:26:00.589Z,2.62
2018-03-08T06:27:01.088Z,2.65
2018-03-08T06:28:01.074Z,2.62
2018-03-08T06:29:01.057Z,2.67
2018-03-08T06:30:01.045Z,2.65
2018-03-08T06:31:01.023Z,2.67
2018-03-08T06:32:01.008Z,2.65
2018-03-08T06:33:00.991Z,2.78
2018-03-08T06:34:00.462Z,2.77
2018-03-08T06:35:00.966Z,2.77
2018-03-08T06:36:00.425Z,2.8
2018-03-08T06:37:00.410Z,2.81
2018-03-08T06:38:00.650Z,2.78
2018-03-08T06:39:01.023Z,2.81
2018-03-08T06:40:00.616Z,2.8
2018-03-08T06:41:00.599Z,2.85
2018-03-08T06:42:00.850Z,2.81
2018-03-08T06:43:00.314Z,2.85
2018-03-08T06:44:00.817Z,2.78
2018-03-08T06:45:00.794Z,2.78
2018-03-08T06:46:00.521Z,2.83
2018-03-08T06:47:00.245Z,2.83
2018-03-08T06:48:00.745Z,2.88
2018-03-08T06:49:00.725Z,2.95
2018-03-08T06:50:00.196Z,2.83
2018-03-08T06:51:00.701Z,2.85
2018-03-08T06:52:00.481Z,2.78
2018-03-08T06:53:00.403Z,2.69
2018-03-08T06:54:00.653Z,2.62
2018-03-08T06:55:00.382Z,2.54
2018-03-08T06:56:00.362Z,2.54
2018-03-08T06:57:00.597Z,2.55
2018-03-08T06:58:00.583Z,2.51
2018-03-08T06:59:00.565Z,2.44
2018-03-08T07:00:00.558Z,2.41
2018-03-08T07:01:00.281Z,2.47
2018-03-08T07:02:00.262Z,2.52
2018-03-08T07:02:59.989Z,2.54
2018-03-08T07:04:00.222Z,2.48
2018-03-08T07:05:00.206Z,2.49
2018-03-08T07:06:00.453Z,2.48
2018-03-08T07:07:00.177Z,2.48
2018-03-08T07:08:00.168Z,2.51
2018-03-08T07:09:00.143Z,2.52
2018-03-08T07:10:00.389Z,2.49
2018-03-08T07:11:00.114Z,2.45
2018-03-08T07:12:00.357Z,2.36
2018-03-08T07:13:00.342Z,2.38
2018-03-08T07:14:00.067Z,2.45
2018-03-08T07:15:00.303Z,2.45
2018-03-08T07:16:00.284Z,2.48
2018-03-08T07:17:00.273Z,2.4
2018-03-08T07:17:59.996Z,2.42
2018-03-08T07:18:59.983Z,2.45
2018-03-08T07:19:59.709Z,2.49
2018-03-08T07:20:59.953Z,2.58
2018-03-08T07:21:59.931Z,2.55
2018-03-08T07:23:00.175Z,2.69
2018-03-08T07:23:59.901Z,2.87
2018-03-08T07:25:00.136Z,2.98
2018-03-08T07:26:00.124Z,3.06
2018-03-08T07:27:00.111Z,3.14
2018-03-08T07:27:59.573Z,3.23
2018-03-08T07:29:00.075Z,3.21
2018-03-08T07:30:00.067Z,3.27
2018-03-08T07:30:59.786Z,3.24
2018-03-08T07:32:00.027Z,3.14
2018-03-08T07:33:00.017Z,3.29
2018-03-08T07:33:59.743Z,3.32
2018-03-08T07:34:59.978Z,3.42
2018-03-08T07:35:59.961Z,3.42
2018-03-08T07:36:59.428Z,3.48
2018-03-08T07:37:59.678Z,3.51
2018-03-08T07:38:59.651Z,3.46
2018-03-08T07:39:59.940Z,3.53
2018-03-08T07:40:59.883Z,3.51
2018-03-08T07:41:59.861Z,3.48
2018-03-08T07:42:59.331Z,3.49
2018-03-08T07:43:59.851Z,3.51
2018-03-08T07:44:59.835Z,3.57
2018-03-08T07:45:59.800Z,3.6
2018-03-08T07:46:59.793Z,3.57
2018-03-08T07:47:59.770Z,3.6
2018-03-08T07:48:59.751Z,3.57
2018-03-08T07:49:59.479Z,3.51
2018-03-08T07:50:59.727Z,3.56
2018-03-08T07:51:59.710Z,3.58
2018-03-08T07:52:59.432Z,3.72
2018-03-08T07:53:59.671Z,3.61
2018-03-08T07:54:59.659Z,3.72
2018-03-08T07:55:59.389Z,3.71
2018-03-08T07:56:59.363Z,3.78
2018-03-08T07:57:59.364Z,3.64
2018-03-08T07:58:59.596Z,3.72
2018-03-08T07:59:59.579Z,3.61
2018-03-08T08:00:59.566Z,3.67
2018-03-08T08:01:59.292Z,3.61
2018-03-08T08:02:59.279Z,3.72
2018-03-08T08:03:59.262Z,3.69
2018-03-08T08:04:59.245Z,3.6
2018-03-08T08:05:59.485Z,3.75
2018-03-08T08:06:59.483Z,3.75
2018-03-08T08:07:59.465Z,3.72
2018-03-08T08:08:59.186Z,3.75
2018-03-08T08:09:59.428Z,3.72
2018-03-08T08:10:59.153Z,3.76
2018-03-08T08:11:59.397Z,3.82
2018-03-08T08:12:59.383Z,3.85
2018-03-08T08:13:59.103Z,3.92
2018-03-08T08:14:59.359Z,4
2018-03-08T08:15:59.476Z,3.94
2018-03-08T08:16:59.322Z,3.93
2018-03-08T08:17:59.304Z,3.92
2018-03-08T08:18:59.037Z,4.04
2018-03-08T08:19:58.758Z,3.93
2018-03-08T08:20:59.057Z,4.07
2018-03-08T08:21:58.990Z,4.15
2018-03-08T08:22:59.226Z,4.26
2018-03-08T08:23:58.962Z,4.29
2018-03-08T08:24:59.193Z,4.17
2018-03-08T08:25:59.180Z,4.28
2018-03-08T08:26:58.909Z,4.42
2018-03-08T08:27:58.894Z,4.39
2018-03-08T08:28:59.138Z,4.48
2018-03-08T08:29:59.122Z,4.54
2018-03-08T08:30:59.104Z,4.54
2018-03-08T08:31:59.095Z,4.48
2018-03-08T08:32:59.077Z,4.48
2018-03-08T08:33:59.058Z,4.46
2018-03-08T08:34:58.791Z,4.47
2018-03-08T08:35:58.775Z,4.33
2018-03-08T08:36:58.766Z,4.39
2018-03-08T08:37:59.003Z,4.42
2018-03-08T08:38:58.985Z,4.33
2018-03-08T08:39:58.459Z,4.33
2018-03-08T08:40:58.700Z,4.5
2018-03-08T08:41:58.957Z,4.42
2018-03-08T08:42:58.669Z,4.39
2018-03-08T08:43:58.912Z,4.36
2018-03-08T08:44:58.895Z,4.46
2018-03-08T08:45:58.630Z,4.44
2018-03-08T08:46:58.609Z,4.42
2018-03-08T08:47:58.594Z,4.4
2018-03-08T08:48:58.838Z,4.42
2018-03-08T08:49:58.828Z,4.5
2018-03-08T08:50:58.553Z,4.54
2018-03-08T08:51:58.538Z,4.51
2018-03-08T08:52:58.784Z,4.5
2018-03-08T08:53:58.771Z,4.5
2018-03-08T08:54:58.491Z,4.64
2018-03-08T08:55:58.736Z,4.58
2018-03-08T08:56:58.462Z,4.6
2018-03-08T08:57:58.706Z,4.46
2018-03-08T08:58:58.701Z,4.5
2018-03-08T08:59:58.424Z,4.5
2018-03-08T09:00:58.662Z,4.51
2018-03-08T09:01:58.649Z,4.58
2018-03-08T09:02:58.633Z,4.56
2018-03-08T09:03:58.622Z,4.48
2018-03-08T09:04:58.347Z,4.46
2018-03-08T09:05:58.601Z,4.46
2018-03-08T09:06:58.577Z,4.46
2018-03-08T09:07:58.303Z,4.35
2018-03-08T09:08:58.546Z,4.4
2018-03-08T09:09:58.532Z,4.32
2018-03-08T09:10:58.514Z,4.24
2018-03-08T09:11:58.502Z,4.29
2018-03-08T09:12:58.487Z,4.18
2018-03-08T09:13:58.216Z,4.12
2018-03-08T09:14:58.464Z,4.12
2018-03-08T09:15:58.449Z,4.11
2018-03-08T09:16:57.912Z,4.21
2018-03-08T09:17:58.418Z,4.15
2018-03-08T09:18:58.410Z,4.21
2018-03-08T09:19:57.869Z,4.33
2018-03-08T09:20:58.374Z,4.28
2018-03-08T09:21:58.357Z,4.26
2018-03-08T09:22:58.083Z,4.28
2018-03-08T09:23:58.324Z,4.17
2018-03-08T09:24:58.049Z,4.18
2018-03-08T09:25:58.308Z,4.18
2018-03-08T09:26:58.020Z,4.18
2018-03-08T09:27:57.749Z,4.11
2018-03-08T09:28:57.990Z,4.07
2018-03-08T09:29:57.980Z,4.11
2018-03-08T09:30:57.960Z,3.92
2018-03-08T09:31:58.202Z,4.03
2018-03-08T09:32:58.193Z,3.94
2018-03-08T09:33:58.254Z,3.94
2018-03-08T09:34:57.908Z,3.94
2018-03-08T09:35:58.144Z,3.96
2018-03-08T09:36:58.129Z,3.97
2018-03-08T09:37:58.120Z,4.07
2018-03-08T09:38:58.093Z,4.17
2018-03-08T09:39:57.826Z,4.17
2018-03-08T09:40:58.074Z,4.1
2018-03-08T09:41:58.056Z,4.24
2018-03-08T09:42:58.044Z,4.32
2018-03-08T09:43:58.037Z,4.26
2018-03-08T09:44:57.755Z,4.3
2018-03-08T09:45:57.989Z,4.36
2018-03-08T09:46:57.734Z,4.47
2018-03-08T09:47:57.713Z,4.47
2018-03-08T09:48:57.698Z,4.5
2018-03-08T09:49:57.953Z,4.48
2018-03-08T09:50:57.919Z,4.58
2018-03-08T09:51:57.651Z,4.44
2018-03-08T09:52:57.632Z,4.56
2018-03-08T09:53:57.359Z,4.61
2018-03-08T09:54:57.863Z,4.61
2018-03-08T09:55:57.844Z,4.75
2018-03-08T09:56:57.832Z,4.91
2018-03-08T09:57:57.821Z,5.03
2018-03-08T09:58:57.924Z,5.15
2018-03-08T09:59:57.789Z,5.16
2018-03-08T10:00:57.777Z,5.21
2018-03-08T10:01:57.498Z,5.15
2018-03-08T10:02:57.484Z,5.15
2018-03-08T10:03:57.218Z,5.1
2018-03-08T10:04:57.453Z,5.06
2018-03-08T10:05:57.700Z,4.92
2018-03-08T10:06:57.432Z,4.92
2018-03-08T10:07:57.414Z,4.91
2018-03-08T10:08:57.396Z,4.74
2018-03-08T10:09:57.653Z,4.68
2018-03-08T10:10:57.626Z,4.64
2018-03-08T10:11:57.615Z,4.6
2018-03-08T10:12:57.670Z,4.58
2018-03-08T10:13:57.069Z,4.65
2018-03-08T10:14:57.573Z,4.66
2018-03-08T10:15:57.302Z,4.66
2018-03-08T10:16:57.287Z,4.69
2018-03-08T10:17:57.266Z,4.76
2018-03-08T10:18:57.255Z,4.94
2018-03-08T10:19:57.243Z,5.05
2018-03-08T10:20:57.225Z,5.16
2018-03-08T10:21:57.213Z,5.18
2018-03-08T10:22:57.458Z,5.21
2018-03-08T10:23:57.440Z,5.34
2018-03-08T10:24:57.428Z,5.33
2018-03-08T10:25:57.407Z,5.49
2018-03-08T10:26:57.394Z,5.59
2018-03-08T10:27:57.383Z,5.64
2018-03-08T10:28:56.867Z,5.63
2018-03-08T10:29:57.358Z,5.72
2018-03-08T10:30:57.338Z,5.75
2018-03-08T10:31:57.320Z,5.75
2018-03-08T10:32:57.305Z,5.89
2018-03-08T10:33:57.300Z,5.98
2018-03-08T10:34:57.282Z,5.87
2018-03-08T10:35:57.267Z,5.92
2018-03-08T10:36:56.994Z,5.89
2018-03-08T10:37:56.723Z,5.98
2018-03-08T10:38:57.224Z,5.98
2018-03-08T10:39:56.951Z,5.95
2018-03-08T10:40:57.274Z,6.13
2018-03-08T10:41:56.925Z,6.25
2018-03-08T10:42:57.168Z,6.47
2018-03-08T10:43:56.904Z,6.4
2018-03-08T10:44:57.136Z,6.26
2018-03-08T10:45:57.123Z,6.36
2018-03-08T10:46:57.110Z,6.39
2018-03-08T10:47:56.902Z,6.47
2018-03-08T10:49:05.043Z,6.44
2018-03-08T10:49:57.068Z,6.39
2018-03-08T10:50:57.056Z,6.31
2018-03-08T10:51:56.784Z,6.25
2018-03-08T10:52:57.028Z,6.28
2018-03-08T10:53:57.017Z,6.31
2018-03-08T10:54:56.488Z,6.37
2018-03-08T10:55:56.990Z,6.52
2018-03-08T10:56:56.716Z,6.52
2018-03-08T10:57:56.705Z,6.55
2018-03-08T10:58:56.947Z,6.75
2018-03-08T10:59:56.938Z,6.91
2018-03-08T11:00:56.922Z,7.03
2018-03-08T11:01:56.652Z,7
2018-03-08T11:02:56.893Z,6.97
2018-03-08T11:03:56.628Z,7
2018-03-08T11:04:56.358Z,6.95
2018-03-08T11:05:56.862Z,7.03
2018-03-08T11:06:56.585Z,7.03
2018-03-08T11:07:56.832Z,7.09
2018-03-08T11:08:56.564Z,7.01
2018-03-08T11:09:56.808Z,6.97
2018-03-08T11:10:56.536Z,7.05
2018-03-08T11:11:56.522Z,7.26
2018-03-08T11:12:56.766Z,7.27
2018-03-08T11:13:56.756Z,7.19
2018-03-08T11:14:56.748Z,7.21
2018-03-08T11:15:56.472Z,7.13
2018-03-08T11:16:56.716Z,7.13
2018-03-08T11:17:56.449Z,7.16
2018-03-08T11:18:56.687Z,7.12
2018-03-08T11:19:56.681Z,7.22
2018-03-08T11:20:56.670Z,7.23
2018-03-08T11:21:56.655Z,7.33
2018-03-08T11:22:56.648Z,7.49
2018-03-08T11:23:56.369Z,7.41
2018-03-08T11:24:56.618Z,7.52
2018-03-08T11:25:56.091Z,7.71
2018-03-08T11:26:56.592Z,7.67
2018-03-08T11:27:56.578Z,7.75
2018-03-08T11:28:56.567Z,7.77
2018-03-08T11:29:56.562Z,7.73
2018-03-08T11:30:56.538Z,7.51
2018-03-08T11:31:56.268Z,7.34
2018-03-08T11:32:56.515Z,7.29
2018-03-08T11:33:56.242Z,7.27
2018-03-08T11:34:56.492Z,7.23
2018-03-08T11:35:56.476Z,7.23
2018-03-08T11:36:56.467Z,7.29
2018-03-08T11:37:56.454Z,7.22
2018-03-08T11:38:56.439Z,7.16
2018-03-08T11:39:56.432Z,7.12
2018-03-08T11:40:56.168Z,7.13
2018-03-08T11:41:56.403Z,6.98
2018-03-08T11:42:57.740Z,7.04
2018-03-08T11:43:56.386Z,6.93
2018-03-08T11:44:56.108Z,6.8
2018-03-08T11:45:56.096Z,6.79
2018-03-08T11:46:56.081Z,6.73
2018-03-08T11:47:56.073Z,6.68
2018-03-08T11:48:56.316Z,6.65
2018-03-08T11:49:56.667Z,6.64
2018-03-08T11:50:57.762Z,6.57
2018-03-08T11:51:56.283Z,6.55
2018-03-08T11:52:55.754Z,6.46
2018-03-08T11:53:57.476Z,6.55
2018-03-08T11:54:56.536Z,6.6
2018-03-08T11:55:56.230Z,6.57
2018-03-08T11:56:55.957Z,6.55
2018-03-08T11:57:56.206Z,6.42
2018-03-08T11:58:55.933Z,6.57
2018-03-08T11:59:56.175Z,6.52
2018-03-08T12:00:56.175Z,6.58
2018-03-08T12:01:55.903Z,6.65
2018-03-08T12:02:55.886Z,6.7
2018-03-08T12:03:55.869Z,6.78
2018-03-08T12:04:55.862Z,6.76
2018-03-08T12:05:56.208Z,6.83
2018-03-08T12:06:55.837Z,6.85
2018-03-08T12:07:56.081Z,6.9
2018-03-08T12:08:56.063Z,6.98
2018-03-08T12:09:56.050Z,6.88
2018-03-08T12:10:55.783Z,7.04
2018-03-08T12:11:56.063Z,7.05
2018-03-08T12:12:56.014Z,7.16
2018-03-08T12:13:56.005Z,7.19
2018-03-08T12:14:55.989Z,7.31
2018-03-08T12:15:55.721Z,7.36
2018-03-08T12:16:55.925Z,7.49
2018-03-08T12:17:55.784Z,7.55
2018-03-08T12:18:55.683Z,7.47
2018-03-08T12:19:56.548Z,7.47
2018-03-08T12:20:55.921Z,7.29
2018-03-08T12:21:55.642Z,7.37
2018-03-08T12:22:55.637Z,7.21
2018-03-08T12:23:55.626Z,7.37
2018-03-08T12:24:55.866Z,7.48
2018-03-08T12:25:55.600Z,7.47
2018-03-08T12:26:55.586Z,7.52
2018-03-08T12:27:55.834Z,7.74
2018-03-08T12:28:55.814Z,7.8
2018-03-08T12:29:55.807Z,7.77
2018-03-08T12:30:55.537Z,7.73
2018-03-08T12:31:55.782Z,7.59
2018-03-08T12:32:55.512Z,7.52
2018-03-08T12:33:55.500Z,7.52
2018-03-08T12:34:55.745Z,7.41
2018-03-08T12:35:55.217Z,7.22
2018-03-08T12:36:55.717Z,7.23
2018-03-08T12:37:55.456Z,7.09
2018-03-08T12:38:55.696Z,7.05
2018-03-08T12:39:55.681Z,7.11
2018-03-08T12:40:55.674Z,7.04
2018-03-08T12:41:55.407Z,7.08
2018-03-08T12:42:55.643Z,7.27
2018-03-08T12:43:55.638Z,7.47
2018-03-08T12:44:55.618Z,7.7
2018-03-08T12:45:55.356Z,7.91
2018-03-08T12:46:55.343Z,7.8
2018-03-08T12:47:55.074Z,7.67
2018-03-08T12:48:55.615Z,7.64
2018-03-08T12:49:55.565Z,7.54
2018-03-08T12:50:55.547Z,7.41
2018-03-08T12:51:55.282Z,7.41
2018-03-08T12:52:55.267Z,7.22
2018-03-08T12:53:55.510Z,7.13
2018-03-08T12:54:55.503Z,7.12
2018-03-08T12:55:55.491Z,7.08
2018-03-08T12:56:55.217Z,7.15
2018-03-08T12:57:55.214Z,7.18
2018-03-08T12:58:55.451Z,7.23
2018-03-08T12:59:55.184Z,7.3
2018-03-08T13:00:54.915Z,7.3
2018-03-08T13:01:55.424Z,7.27
2018-03-08T13:02:55.414Z,7.45
2018-03-08T13:03:55.393Z,7.41
2018-03-08T13:04:55.377Z,7.52
2018-03-08T13:05:55.370Z,7.4
2018-03-08T13:06:54.840Z,7.47
2018-03-08T13:07:55.089Z,7.49
2018-03-08T13:08:55.333Z,7.52
2018-03-08T13:09:55.324Z,7.52
2018-03-08T13:10:55.307Z,7.34
2018-03-08T13:11:55.299Z,7.15
2018-03-08T13:12:55.288Z,7.16
2018-03-08T13:13:55.271Z,7.04
2018-03-08T13:14:55.006Z,6.95
2018-03-08T13:15:55.254Z,6.9
2018-03-08T13:16:54.977Z,6.86
2018-03-08T13:17:55.224Z,6.76
2018-03-08T13:18:54.954Z,6.64
2018-03-08T13:19:55.198Z,6.6